Flight Track Log - Related Links

Times and Time Zones

All times are in EDT time to prevent confusion due to time zone crossing. See the USC3011 flight status page for this flight to view local times or setup timezone preferences in your user account.

Time Position Orientation Groundspeed Altitude Reporting Facility
EDT Latitude Longitude Course Direction KTS MPH feet Rate Location/Type
Tue 03:10:14 AM 31.7297 -81.7958 173° South 166 191 6,100  Level Jacksonville Center
Tue 03:11:14 AM 31.6858 -81.7889 172° South 171 197 6,100 -50 Level Jacksonville Center
Tue 03:12:14 AM 31.6375 -81.7822 173° South 177 204 6,000 -50 Descending Jacksonville Center
Tue 03:13:14 AM 31.5833 -81.7756 174° South 182 209 6,000  Level Jacksonville Center
Tue 03:14:14 AM 31.5353 -81.7664 171° South 182 209 6,000  Level Jacksonville Center
Tue 03:15:00 AM 33.2164 -82.0016 173° South  Level Estimated
Tue 03:15:14 AM 31.4869 -81.7572 171° South 182 209 6,000  Level Jacksonville Center
Tue 03:16:14 AM 31.4431 -81.7531 175° South 176 203 6,000  Level Jacksonville Center
Tue 03:18:00 AM 31.3694 -81.7414 172° South  Level FlightAware Approximate
Tue 03:20:58 AM 31.2047 -81.7169 172° South 181 208 6,000  Level Jacksonville Center
Tue 03:21:14 AM 31.1986 -81.7169 180° South 181 208 6,000  Level Jacksonville Center
Tue 03:22:11 AM 31.1442 -81.7106 174° South 184 212 6,000  Level Jacksonville Center
Tue 03:23:11 AM 31.0919 -81.7039 174° South 184 212 6,000  Level Jacksonville Center
Tue 03:24:12 AM 31.0439 -81.6922 168° South 185 213 6,000  Level Jacksonville Center
Tue 03:25:00 AM 31.0778 -81.6955 172° South  Level FlightAware Approximate
Tue 03:25:12 AM 30.9875 -81.6858 174° South 189 217 6,000  Level Jacksonville Center
Tue 03:26:00 AM 31.0361 -81.6890 172° South  Level FlightAware Approximate
Tue 03:26:13 AM 30.9350 -81.6792 174° South 185 213 6,000  Level Jacksonville Center
Tue 03:27:14 AM 30.8850 -81.6725 173° South 187 215 6,000  Level Jacksonville Center
Tue 03:28:14 AM 30.8328 -81.6658 174° South 186 214 6,000  Level Jacksonville Center
Tue 03:29:14 AM 30.7825 -81.6569 171° South 186 214 6,000  Level Jacksonville Center
Tue 03:30:22 AM 30.7303 -81.6481 172° South 185 213 6,000  Level Jacksonville Center
Tue 03:30:38 AM 30.7197 -81.6481 180° South 186 214 6,000  Level Jacksonville Center
Tue 03:31:16 AM 30.6781 -81.6414 172° South 185 213 6,000  Level Jacksonville Center
Tue 03:32:17 AM 30.6278 -81.6325 171° South 187 215 6,000  Level Jacksonville Center
Tue 03:33:17 AM 30.5756 -81.6258 174° South 186 214 6,000  Level Jacksonville Center
Tue 03:34:18 AM 30.5233 -81.6192 174° South 187 215 6,000  Level Jacksonville Center
Tue 03:35:18 AM 30.4689 -81.6081 170° South 192 221 6,000  Level Jacksonville Center
Tue 03:36:19 AM 30.4144 -81.6014 174° South 190 219 6,000  Level Jacksonville Center
Tue 03:37:20 AM 30.3644 -81.5950 174° South 188 216 6,000  Level Jacksonville Center
Tue 03:38:20 AM 30.3119 -81.5883 174° South 188 216 6,000  Level Jacksonville Center
Tue 03:39:27 AM 30.2536 -81.5772 171° South 189 217 6,000  Level Jacksonville Center
Tue 03:40:27 AM 30.1992 -81.5731 176° South 191 220 6,000  Level Jacksonville Center
Tue 03:41:28 AM 30.1447 -81.5642 172° South 191 220 6,000  Level Jacksonville Center
Tue 03:42:29 AM 30.0925 -81.5553 172° South 194 223 6,000  Level Jacksonville Center
Tue 03:43:29 AM 30.0381 -81.5467 172° South 188 216 6,000  Level Jacksonville Center
Tue 03:44:30 AM 29.9858 -81.5400 174° South 191 220 6,000 67 Level Jacksonville Center
Tue 03:44:58 AM 29.9586 -81.5381 176° South 194 223 6,100 63 Climbing Jacksonville Center
Tue 03:46:05 AM 29.9000 -81.5292 173° South 196 226 6,100  Level Jacksonville Center
Tue 03:47:06 AM 29.8478 -81.5206 172° South 194 223 6,100  Level Jacksonville Center
Tue 03:48:06 AM 29.7936 -81.5142 174° South 192 221 6,100  Level Jacksonville Center
Tue 03:49:13 AM 29.7350 -81.5078 175° South 195 224 6,100  Level Jacksonville Center
Tue 03:50:13 AM 29.6764 -81.4967 171° South 197 227 6,100  Level Jacksonville Center
Tue 03:51:14 AM 29.6219 -81.4903 174° South 194 223 6,100 -197 Level Jacksonville Center
Tue 03:52:15 AM 29.5697 -81.4814 172° South 195 224 5,700 -496 Descending Jacksonville Center
Tue 03:53:15 AM 29.5133 -81.4750 174° South 208 239 5,100 -595 Descending Jacksonville Center
Tue 03:54:16 AM 29.4547 -81.4664 173° South 211 243 4,500 -545 Descending Jacksonville Center
Tue 03:55:16 AM 29.3961 -81.4553 171° South 210 242 4,000 -189 Descending Jacksonville Center
Tue 03:56:55 AM 29.3000 -81.4333 169° South 190 219 4,000  Level Orlando TRACON
Tue 03:57:55 AM 29.2500 -81.4333 180° South 191 220 4,000 50 Level Orlando TRACON
Tue 03:58:55 AM 29.2000 -81.4333 180° South 193 222 4,100  Climbing Orlando TRACON
Tue 03:59:55 AM 29.1500 -81.4167 164° South 191 220 4,000 -50 Descending Orlando TRACON
Tue 04:00:55 AM 29.1000 -81.4167 180° South 191 220 4,000 50 Level Orlando TRACON
Tue 04:01:55 AM 29.0500 -81.4000 164° South 190 219 4,100  Climbing Orlando TRACON
Tue 04:02:55 AM 28.9833 -81.4000 180° South 187 215 4,000  Descending Orlando TRACON
Tue 04:03:55 AM 28.9333 -81.3833 164° South 187 215 4,100 -150 Climbing Orlando TRACON
Tue 04:04:55 AM 28.8833 -81.3833 180° South 193 222 3,700 -500 Descending Orlando TRACON
Tue 04:05:55 AM 28.8333 -81.3667 164° South 201 231 3,100 -600 Descending Orlando TRACON
Tue 04:06:55 AM 28.7833 -81.3667 180° South 200 230 2,500 -550 Descending Orlando TRACON
Tue 04:07:55 AM 28.7167 -81.3500 168° South 190 219 2,000 -450 Descending Orlando TRACON
Tue 04:08:55 AM 28.6667 -81.3500 170° South 181 208 1,600 -400 Descending Orlando TRACON
Tue 04:08:55 AM 28.6667 -81.3500 180° South 181 208 1,600 -300 Level Orlando TRACON
Tue 04:09:55 AM 28.6167 -81.3500 180° South 171 197 1,300 -198 Descending Orlando TRACON
Tue 04:10:56 AM 28.5833 -81.3500 180° South 153 176 1,200 -298 Descending Orlando TRACON
Tue 04:11:56 AM 28.5500 -81.3500 180° South 124 143 700 -500 Descending Orlando TRACON
Tue 04:13:00 AM 28.5455 -81.3329 170° South  Level Estimated
Tue 04:16:00 AM 28.5455 -81.3329 170° South  Level Estimated
Tue 04:20:00 AM 28.5455 -81.3329 170° South  Level Estimated
Tue 04:23:00 AM 28.5455 -81.3329 170° South  Level Estimated

Login

Don't have an account? Register now (free) for customized features, flight alerts, and more!